sensor_id;sensor_type;location;lat;lon;timestamp;noise_LAeq;noise_LA_min;noise_LA_max;noise_LA01;noise_LA95
66463;Laerm;56827;52.178;4.500;2023-11-21T00:00:02;31.72;29.44;39.30;;
66463;Laerm;56827;52.178;4.500;2023-11-21T00:00:14;33.31;29.19;50.84;;
66463;Laerm;56827;52.178;4.500;2023-11-21T00:00:24;32.37;29.10;40.47;;
66463;Laerm;56827;52.178;4.500;2023-11-21T00:00:36;31.76;29.16;37.74;;
66463;Laerm;56827;52.178;4.500;2023-11-21T00:00:46;32.07;29.32;38.48;;
66463;Laerm;56827;52.178;4.500;2023-11-21T00:00:56;32.12;29.65;40.71;;
66463;Laerm;56827;52.178;4.500;2023-11-21T00:01:06;31.85;29.32;37.60;;
66463;Laerm;56827;52.178;4.500;2023-11-21T00:01:18;31.64;29.30;38.10;;
66463;Laerm;56827;52.178;4.500;2023-11-21T00:01:28;31.59;29.11;37.28;;
66463;Laerm;56827;52.178;4.500;2023-11-21T00:01:39;34.80;29.36;50.52;;
66463;Laerm;56827;52.178;4.500;2023-11-21T00:01:51;33.42;29.55;44.18;;
66463;Laerm;56827;52.178;4.500;2023-11-21T00:02:02;32.31;30.01;38.13;;
66463;Laerm;56827;52.178;4.500;2023-11-21T00:02:12;32.84;29.88;40.08;;
66463;Laerm;56827;52.178;4.500;2023-11-21T00:02:22;31.70;29.47;37.52;;
66463;Laerm;56827;52.178;4.500;2023-11-21T00:02:32;32.19;29.43;40.96;;
66463;Laerm;56827;52.178;4.500;2023-11-21T00:02:43;31.88;29.43;38.55;;
66463;Laerm;56827;52.178;4.500;2023-11-21T00:02:53;32.24;29.66;37.59;;
66463;Laerm;56827;52.178;4.500;2023-11-21T00:03:04;32.76;29.93;46.51;;
66463;Laerm;56827;52.178;4.500;2023-11-21T00:03:14;33.23;30.48;45.57;;
66463;Laerm;56827;52.178;4.500;2023-11-21T00:03:27;33.71;30.81;39.55;;
66463;Laerm;56827;52.178;4.500;2023-11-21T00:03:38;32.10;29.81;38.10;;
66463;Laerm;56827;52.178;4.500;2023-11-21T00:03:48;32.38;29.42;39.89;;
66463;Laerm;56827;52.178;4.500;2023-11-21T00:03:58;32.80;29.69;45.53;;
66463;Laerm;56827;52.178;4.500;2023-11-21T00:04:09;36.34;30.00;45.34;;
66463;Laerm;56827;52.178;4.500;2023-11-21T00:04:19;33.60;29.36;41.68;;
66463;Laerm;56827;52.178;4.500;2023-11-21T00:04:29;31.64;29.07;37.71;;
66463;Laerm;56827;52.178;4.500;2023-11-21T00:04:39;31.87;29.52;37.49;;
66463;Laerm;56827;52.178;4.500;2023-11-21T00:04:50;32.15;29.42;38.97;;
66463;Laerm;56827;52.178;4.500;2023-11-21T00:05:00;32.09;29.68;42.21;;
66463;Laerm;56827;52.178;4.500;2023-11-21T00:05:11;32.57;29.63;43.44;;
66463;Laerm;56827;52.178;4.500;2023-11-21T00:05:22;32.96;30.22;41.09;;
66463;Laerm;56827;52.178;4.500;2023-11-21T00:05:33;33.83;29.84;38.37;;
66463;Laerm;56827;52.178;4.500;2023-11-21T00:05:43;32.35;29.56;40.09;;
66463;Laerm;56827;52.178;4.500;2023-11-21T00:05:53;32.10;29.61;38.72;;
66463;Laerm;56827;52.178;4.500;2023-11-21T00:06:04;32.72;30.01;37.96;;
66463;Laerm;56827;52.178;4.500;2023-11-21T00:06:14;32.36;29.49;37.04;;
66463;Laerm;56827;52.178;4.500;2023-11-21T00:06:24;33.07;29.84;40.43;;
66463;Laerm;56827;52.178;4.500;2023-11-21T00:06:35;32.53;29.58;38.06;;
66463;Laerm;56827;52.178;4.500;2023-11-21T00:06:45;32.53;29.37;38.19;;
66463;Laerm;56827;52.178;4.500;2023-11-21T00:06:57;35.83;30.31;48.57;;
66463;Laerm;56827;52.178;4.500;2023-11-21T00:07:09;34.97;31.03;44.82;;
66463;Laerm;56827;52.178;4.500;2023-11-21T00:07:19;31.96;29.45;37.16;;
66463;Laerm;56827;52.178;4.500;2023-11-21T00:07:31;32.56;29.40;38.68;;
66463;Laerm;56827;52.178;4.500;2023-11-21T00:07:41;32.21;29.49;46.65;;
66463;Laerm;56827;52.178;4.500;2023-11-21T00:07:52;31.69;28.78;37.42;;
66463;Laerm;56827;52.178;4.500;2023-11-21T00:08:02;31.74;29.18;37.74;;
66463;Laerm;56827;52.178;4.500;2023-11-21T00:08:14;31.87;29.35;42.68;;
66463;Laerm;56827;52.178;4.500;2023-11-21T00:08:25;31.99;29.71;37.59;;
66463;Laerm;56827;52.178;4.500;2023-11-21T00:08:35;33.57;29.94;51.87;;
66463;Laerm;56827;52.178;4.500;2023-11-21T00:08:45;32.62;30.18;38.71;;
66463;Laerm;56827;52.178;4.500;2023-11-21T00:08:56;35.15;30.88;39.00;;
66463;Laerm;56827;52.178;4.500;2023-11-21T00:09:06;37.38;32.93;42.09;;
66463;Laerm;56827;52.178;4.500;2023-11-21T00:09:18;40.29;37.93;44.91;;
66463;Laerm;56827;52.178;4.500;2023-11-21T00:09:29;42.23;38.27;49.38;;
66463;Laerm;56827;52.178;4.500;2023-11-21T00:09:40;39.21;34.64;44.64;;
66463;Laerm;56827;52.178;4.500;2023-11-21T00:09:51;36.10;33.50;39.48;;
66463;Laerm;56827;52.178;4.500;2023-11-21T00:10:01;38.89;34.08;41.99;;
66463;Laerm;56827;52.178;4.500;2023-11-21T00:10:13;40.51;38.07;44.38;;
66463;Laerm;56827;52.178;4.500;2023-11-21T00:10:24;41.01;35.12;44.43;;
66463;Laerm;56827;52.178;4.500;2023-11-21T00:10:34;35.35;32.08;39.29;;
66463;Laerm;56827;52.178;4.500;2023-11-21T00:10:44;33.77;30.37;38.31;;
66463;Laerm;56827;52.178;4.500;2023-11-21T00:10:55;32.98;30.26;42.83;;
66463;Laerm;56827;52.178;4.500;2023-11-21T00:11:05;33.65;30.77;39.63;;
66463;Laerm;56827;52.178;4.500;2023-11-21T00:11:15;33.89;30.73;38.49;;
66463;Laerm;56827;52.178;4.500;2023-11-21T00:11:25;36.53;32.82;40.17;;
66463;Laerm;56827;52.178;4.500;2023-11-21T00:11:36;36.68;33.21;39.69;;
66463;Laerm;56827;52.178;4.500;2023-11-21T00:11:47;34.16;30.31;52.03;;
66463;Laerm;56827;52.178;4.500;2023-11-21T00:11:58;33.11;30.25;38.92;;
66463;Laerm;56827;52.178;4.500;2023-11-21T00:12:09;34.58;32.42;40.42;;
66463;Laerm;56827;52.178;4.500;2023-11-21T00:12:20;33.60;31.03;38.28;;
66463;Laerm;56827;52.178;4.500;2023-11-21T00:12:31;32.70;30.00;44.36;;
66463;Laerm;56827;52.178;4.500;2023-11-21T00:12:41;32.54;30.44;39.64;;
66463;Laerm;56827;52.178;4.500;2023-11-21T00:12:52;32.96;30.30;38.70;;
66463;Laerm;56827;52.178;4.500;2023-11-21T00:13:05;31.86;29.63;37.22;;
66463;Laerm;56827;52.178;4.500;2023-11-21T00:13:15;32.07;29.40;37.57;;
66463;Laerm;56827;52.178;4.500;2023-11-21T00:13:25;32.05;29.18;38.80;;
66463;Laerm;56827;52.178;4.500;2023-11-21T00:13:35;32.30;30.21;38.08;;
66463;Laerm;56827;52.178;4.500;2023-11-21T00:13:45;33.47;29.73;39.44;;
66463;Laerm;56827;52.178;4.500;2023-11-21T00:13:55;33.99;30.86;38.47;;
66463;Laerm;56827;52.178;4.500;2023-11-21T00:14:06;32.46;29.77;39.78;;
66463;Laerm;56827;52.178;4.500;2023-11-21T00:14:16;32.97;29.86;48.41;;
66463;Laerm;56827;52.178;4.500;2023-11-21T00:14:26;32.27;29.69;42.26;;
66463;Laerm;56827;52.178;4.500;2023-11-21T00:14:37;32.82;29.56;46.13;;
66463;Laerm;56827;52.178;4.500;2023-11-21T00:14:48;32.23;29.61;37.90;;
66463;Laerm;56827;52.178;4.500;2023-11-21T00:14:58;32.45;29.52;46.50;;
66463;Laerm;56827;52.178;4.500;2023-11-21T00:15:09;34.37;30.25;38.95;;
66463;Laerm;56827;52.178;4.500;2023-11-21T00:15:20;35.28;31.82;39.58;;
66463;Laerm;56827;52.178;4.500;2023-11-21T00:15:31;32.68;29.78;39.16;;
66463;Laerm;56827;52.178;4.500;2023-11-21T00:15:44;32.45;29.43;37.97;;
66463;Laerm;56827;52.178;4.500;2023-11-21T00:15:54;36.70;30.07;46.26;;
66463;Laerm;56827;52.178;4.500;2023-11-21T00:16:05;36.28;32.12;42.33;;
66463;Laerm;56827;52.178;4.500;2023-11-21T00:16:15;40.25;35.81;44.35;;
66463;Laerm;56827;52.178;4.500;2023-11-21T00:16:25;44.33;40.98;46.48;;
66463;Laerm;56827;52.178;4.500;2023-11-21T00:16:35;41.99;37.13;45.85;;
66463;Laerm;56827;52.178;4.500;2023-11-21T00:16:46;38.49;34.06;46.68;;
66463;Laerm;56827;52.178;4.500;2023-11-21T00:16:56;36.62;31.87;40.67;;
66463;Laerm;56827;52.178;4.500;2023-11-21T00:17:06;32.63;30.18;37.87;;
66463;Laerm;56827;52.178;4.500;2023-11-21T00:17:16;32.15;29.66;37.28;;
66463;Laerm;56827;52.178;4.500;2023-11-21T00:17:27;31.77;29.37;37.42;;
66463;Laerm;56827;52.178;4.500;2023-11-21T00:17:37;32.22;29.72;40.01;;
66463;Laerm;56827;52.178;4.500;2023-11-21T00:17:47;32.44;29.59;42.08;;
66463;Laerm;56827;52.178;4.500;2023-11-21T00:17:58;31.73;29.19;37.60;;
66463;Laerm;56827;52.178;4.500;2023-11-21T00:18:08;32.19;29.66;41.08;;
66463;Laerm;56827;52.178;4.500;2023-11-21T00:18:18;32.06;29.29;39.22;;
66463;Laerm;56827;52.178;4.500;2023-11-21T00:18:29;32.23;29.82;37.62;;
66463;Laerm;56827;52.178;4.500;2023-11-21T00:18:39;32.33;29.87;38.15;;
66463;Laerm;56827;52.178;4.500;2023-11-21T00:18:49;32.98;30.21;38.33;;
66463;Laerm;56827;52.178;4.500;2023-11-21T00:19:01;32.77;29.91;38.29;;
66463;Laerm;56827;52.178;4.500;2023-11-21T00:19:11;32.47;29.59;43.53;;
66463;Laerm;56827;52.178;4.500;2023-11-21T00:19:22;31.97;29.54;41.78;;
66463;Laerm;56827;52.178;4.500;2023-11-21T00:19:32;32.03;29.64;37.07;;
66463;Laerm;56827;52.178;4.500;2023-11-21T00:19:44;31.90;29.62;38.46;;
66463;Laerm;56827;52.178;4.500;2023-11-21T00:19:55;31.88;29.73;36.44;;
66463;Laerm;56827;52.178;4.500;2023-11-21T00:20:05;32.53;29.21;45.49;;
66463;Laerm;56827;52.178;4.500;2023-11-21T00:20:16;32.62;29.41;45.23;;
66463;Laerm;56827;52.178;4.500;2023-11-21T00:20:27;32.60;29.77;39.75;;
66463;Laerm;56827;52.178;4.500;2023-11-21T00:20:37;34.71;29.60;45.12;;
66463;Laerm;56827;52.178;4.500;2023-11-21T00:20:47;32.05;29.34;42.75;;
66463;Laerm;56827;52.178;4.500;2023-11-21T00:20:57;32.90;29.60;48.68;;
66463;Laerm;56827;52.178;4.500;2023-11-21T00:21:09;31.82;29.67;40.62;;
66463;Laerm;56827;52.178;4.500;2023-11-21T00:21:19;32.46;29.62;47.56;;
66463;Laerm;56827;52.178;4.500;2023-11-21T00:21:29;32.02;29.59;38.92;;
66463;Laerm;56827;52.178;4.500;2023-11-21T00:21:39;31.67;29.49;36.78;;
66463;Laerm;56827;52.178;4.500;2023-11-21T00:21:50;32.52;29.67;45.33;;
66463;Laerm;56827;52.178;4.500;2023-11-21T00:22:00;32.33;29.82;36.93;;
66463;Laerm;56827;52.178;4.500;2023-11-21T00:22:10;32.28;30.06;37.04;;
66463;Laerm;56827;52.178;4.500;2023-11-21T00:22:20;32.51;30.49;38.68;;
66463;Laerm;56827;52.178;4.500;2023-11-21T00:22:31;32.62;30.53;40.20;;
66463;Laerm;56827;52.178;4.500;2023-11-21T00:22:42;32.34;29.64;38.03;;
66463;Laerm;56827;52.178;4.500;2023-11-21T00:22:52;31.62;29.18;41.31;;
66463;Laerm;56827;52.178;4.500;2023-11-21T00:23:03;31.53;29.65;37.12;;
66463;Laerm;56827;52.178;4.500;2023-11-21T00:23:13;31.82;29.60;38.46;;
66463;Laerm;56827;52.178;4.500;2023-11-21T00:23:23;32.07;29.55;42.68;;
66463;Laerm;56827;52.178;4.500;2023-11-21T00:23:33;31.66;29.32;39.13;;
66463;Laerm;56827;52.178;4.500;2023-11-21T00:23:44;31.81;29.36;37.58;;
66463;Laerm;56827;52.178;4.500;2023-11-21T00:23:54;31.73;29.70;38.24;;
66463;Laerm;56827;52.178;4.500;2023-11-21T00:24:04;32.06;29.78;38.23;;
66463;Laerm;56827;52.178;4.500;2023-11-21T00:24:15;31.63;29.04;39.11;;
66463;Laerm;56827;52.178;4.500;2023-11-21T00:24:25;33.36;29.05;53.97;;
66463;Laerm;56827;52.178;4.500;2023-11-21T00:24:35;31.76;29.43;37.19;;
66463;Laerm;56827;52.178;4.500;2023-11-21T00:24:46;31.77;29.79;37.70;;
66463;Laerm;56827;52.178;4.500;2023-11-21T00:24:56;31.81;29.12;37.96;;
66463;Laerm;56827;52.178;4.500;2023-11-21T00:25:07;31.93;29.65;37.42;;
66463;Laerm;56827;52.178;4.500;2023-11-21T00:25:18;32.17;29.86;38.16;;
66463;Laerm;56827;52.178;4.500;2023-11-21T00:25:30;31.87;29.22;39.76;;
66463;Laerm;56827;52.178;4.500;2023-11-21T00:25:41;31.81;29.39;42.58;;
66463;Laerm;56827;52.178;4.500;2023-11-21T00:25:51;32.36;29.80;40.69;;
66463;Laerm;56827;52.178;4.500;2023-11-21T00:26:01;32.33;29.33;46.60;;
66463;Laerm;56827;52.178;4.500;2023-11-21T00:26:11;31.70;29.31;39.29;;
66463;Laerm;56827;52.178;4.500;2023-11-21T00:26:22;32.17;29.52;38.02;;
66463;Laerm;56827;52.178;4.500;2023-11-21T00:26:34;31.78;29.64;37.40;;
66463;Laerm;56827;52.178;4.500;2023-11-21T00:26:46;32.43;29.93;38.07;;
66463;Laerm;56827;52.178;4.500;2023-11-21T00:26:58;33.84;30.06;41.40;;
66463;Laerm;56827;52.178;4.500;2023-11-21T00:27:08;36.47;33.39;40.74;;
66463;Laerm;56827;52.178;4.500;2023-11-21T00:27:18;35.45;31.84;39.63;;
66463;Laerm;56827;52.178;4.500;2023-11-21T00:27:29;36.45;31.57;41.56;;
66463;Laerm;56827;52.178;4.500;2023-11-21T00:27:39;39.08;34.73;42.16;;
66463;Laerm;56827;52.178;4.500;2023-11-21T00:27:49;36.33;31.92;42.47;;
66463;Laerm;56827;52.178;4.500;2023-11-21T00:28:00;36.28;33.14;44.15;;
66463;Laerm;56827;52.178;4.500;2023-11-21T00:28:11;33.94;30.76;39.64;;
66463;Laerm;56827;52.178;4.500;2023-11-21T00:28:21;33.74;30.82;40.37;;
66463;Laerm;56827;52.178;4.500;2023-11-21T00:28:32;33.54;30.25;42.00;;
66463;Laerm;56827;52.178;4.500;2023-11-21T00:28:42;33.25;30.13;38.61;;
66463;Laerm;56827;52.178;4.500;2023-11-21T00:28:52;32.97;30.55;40.37;;
66463;Laerm;56827;52.178;4.500;2023-11-21T00:29:03;33.94;30.64;46.26;;
66463;Laerm;56827;52.178;4.500;2023-11-21T00:29:13;36.38;32.91;39.82;;
66463;Laerm;56827;52.178;4.500;2023-11-21T00:29:23;34.49;31.96;39.37;;
66463;Laerm;56827;52.178;4.500;2023-11-21T00:29:33;33.08;30.45;40.49;;
66463;Laerm;56827;52.178;4.500;2023-11-21T00:29:44;33.65;31.17;38.24;;
66463;Laerm;56827;52.178;4.500;2023-11-21T00:29:54;33.39;30.68;38.46;;
66463;Laerm;56827;52.178;4.500;2023-11-21T00:30:06;37.80;31.54;50.25;;
66463;Laerm;56827;52.178;4.500;2023-11-21T00:30:18;39.25;34.22;43.35;;
66463;Laerm;56827;52.178;4.500;2023-11-21T00:30:30;34.88;31.13;39.04;;
66463;Laerm;56827;52.178;4.500;2023-11-21T00:30:41;32.32;30.35;38.78;;
66463;Laerm;56827;52.178;4.500;2023-11-21T00:30:51;32.11;29.42;38.47;;
66463;Laerm;56827;52.178;4.500;2023-11-21T00:31:01;31.87;29.59;37.45;;
66463;Laerm;56827;52.178;4.500;2023-11-21T00:31:11;32.10;29.80;38.37;;
66463;Laerm;56827;52.178;4.500;2023-11-21T00:31:21;32.71;29.86;45.81;;
66463;Laerm;56827;52.178;4.500;2023-11-21T00:31:32;33.32;30.29;37.60;;
66463;Laerm;56827;52.178;4.500;2023-11-21T00:31:43;35.89;33.30;40.35;;
66463;Laerm;56827;52.178;4.500;2023-11-21T00:31:53;38.08;31.46;46.19;;
66463;Laerm;56827;52.178;4.500;2023-11-21T00:32:04;31.87;29.82;36.82;;
66463;Laerm;56827;52.178;4.500;2023-11-21T00:32:15;32.64;30.23;38.71;;
66463;Laerm;56827;52.178;4.500;2023-11-21T00:32:25;31.91;29.91;36.47;;
66463;Laerm;56827;52.178;4.500;2023-11-21T00:32:36;31.95;29.44;37.32;;
66463;Laerm;56827;52.178;4.500;2023-11-21T00:32:46;32.37;29.73;37.91;;
66463;Laerm;56827;52.178;4.500;2023-11-21T00:32:57;32.43;29.88;40.74;;
66463;Laerm;56827;52.178;4.500;2023-11-21T00:33:07;32.78;29.63;40.72;;
66463;Laerm;56827;52.178;4.500;2023-11-21T00:33:17;32.12;29.66;38.88;;
66463;Laerm;56827;52.178;4.500;2023-11-21T00:33:27;31.98;29.63;39.30;;
66463;Laerm;56827;52.178;4.500;2023-11-21T00:33:37;31.82;29.44;36.42;;
66463;Laerm;56827;52.178;4.500;2023-11-21T00:33:48;32.03;29.56;38.03;;
66463;Laerm;56827;52.178;4.500;2023-11-21T00:33:58;32.15;29.26;39.57;;
66463;Laerm;56827;52.178;4.500;2023-11-21T00:34:08;31.90;29.18;38.07;;
66463;Laerm;56827;52.178;4.500;2023-11-21T00:34:19;31.44;29.24;37.62;;
66463;Laerm;56827;52.178;4.500;2023-11-21T00:34:29;31.85;29.53;38.84;;
66463;Laerm;56827;52.178;4.500;2023-11-21T00:34:40;31.67;29.19;39.40;;
66463;Laerm;56827;52.178;4.500;2023-11-21T00:34:50;31.96;29.29;42.25;;
66463;Laerm;56827;52.178;4.500;2023-11-21T00:35:00;31.91;29.65;37.31;;
66463;Laerm;56827;52.178;4.500;2023-11-21T00:35:10;31.61;29.37;37.85;;
66463;Laerm;56827;52.178;4.500;2023-11-21T00:35:20;32.11;29.37;37.79;;
66463;Laerm;56827;52.178;4.500;2023-11-21T00:35:31;32.74;29.47;38.73;;
66463;Laerm;56827;52.178;4.500;2023-11-21T00:35:41;31.54;28.89;38.79;;
66463;Laerm;56827;52.178;4.500;2023-11-21T00:35:51;31.68;29.14;42.76;;
66463;Laerm;56827;52.178;4.500;2023-11-21T00:36:01;31.34;29.21;38.60;;
66463;Laerm;56827;52.178;4.500;2023-11-21T00:36:12;31.89;29.30;46.65;;
66463;Laerm;56827;52.178;4.500;2023-11-21T00:36:22;31.68;29.00;39.46;;
66463;Laerm;56827;52.178;4.500;2023-11-21T00:36:32;31.26;29.12;40.56;;
66463;Laerm;56827;52.178;4.500;2023-11-21T00:36:42;31.51;29.17;38.79;;
66463;Laerm;56827;52.178;4.500;2023-11-21T00:36:52;31.42;28.99;37.57;;
66463;Laerm;56827;52.178;4.500;2023-11-21T00:37:03;31.75;29.26;41.08;;
66463;Laerm;56827;52.178;4.500;2023-11-21T00:37:14;32.59;29.00;45.75;;
66463;Laerm;56827;52.178;4.500;2023-11-21T00:37:24;33.22;29.59;43.95;;
66463;Laerm;56827;52.178;4.500;2023-11-21T00:37:35;33.10;29.81;41.48;;
66463;Laerm;56827;52.178;4.500;2023-11-21T00:37:45;34.10;31.23;41.60;;
66463;Laerm;56827;52.178;4.500;2023-11-21T00:37:55;32.15;29.55;37.84;;
66463;Laerm;56827;52.178;4.500;2023-11-21T00:38:06;31.91;29.61;37.36;;
66463;Laerm;56827;52.178;4.500;2023-11-21T00:38:18;32.61;30.26;38.37;;
66463;Laerm;56827;52.178;4.500;2023-11-21T00:38:32;33.60;30.36;38.74;;
66463;Laerm;56827;52.178;4.500;2023-11-21T00:38:42;37.17;33.35;42.40;;
66463;Laerm;56827;52.178;4.500;2023-11-21T00:38:52;37.46;33.82;40.45;;
66463;Laerm;56827;52.178;4.500;2023-11-21T00:39:03;34.46;31.35;40.35;;
66463;Laerm;56827;52.178;4.500;2023-11-21T00:39:13;33.78;31.11;40.66;;
66463;Laerm;56827;52.178;4.500;2023-11-21T00:39:24;35.80;33.28;39.56;;
66463;Laerm;56827;52.178;4.500;2023-11-21T00:39:34;36.02;32.80;40.12;;
66463;Laerm;56827;52.178;4.500;2023-11-21T00:39:45;33.60;30.63;41.20;;
66463;Laerm;56827;52.178;4.500;2023-11-21T00:39:55;33.10;30.29;38.00;;
66463;Laerm;56827;52.178;4.500;2023-11-21T00:40:06;33.83;30.30;42.40;;
66463;Laerm;56827;52.178;4.500;2023-11-21T00:40:17;33.97;30.42;38.29;;
66463;Laerm;56827;52.178;4.500;2023-11-21T00:40:31;36.33;30.54;41.55;;
66463;Laerm;56827;52.178;4.500;2023-11-21T00:40:41;32.66;30.10;37.60;;
66463;Laerm;56827;52.178;4.500;2023-11-21T00:40:52;32.51;29.26;37.56;;
66463;Laerm;56827;52.178;4.500;2023-11-21T00:41:03;32.83;29.82;45.95;;
66463;Laerm;56827;52.178;4.500;2023-11-21T00:41:13;33.08;29.33;38.17;;
66463;Laerm;56827;52.178;4.500;2023-11-21T00:41:23;33.04;29.61;39.63;;
66463;Laerm;56827;52.178;4.500;2023-11-21T00:41:34;35.43;31.00;39.84;;
66463;Laerm;56827;52.178;4.500;2023-11-21T00:41:44;45.07;34.77;54.53;;
66463;Laerm;56827;52.178;4.500;2023-11-21T00:41:55;41.33;33.57;53.26;;
66463;Laerm;56827;52.178;4.500;2023-11-21T00:42:05;34.99;31.65;39.30;;
66463;Laerm;56827;52.178;4.500;2023-11-21T00:42:15;33.00;29.82;39.35;;
66463;Laerm;56827;52.178;4.500;2023-11-21T00:42:25;32.39;29.50;39.72;;
66463;Laerm;56827;52.178;4.500;2023-11-21T00:42:36;33.87;30.07;40.68;;
66463;Laerm;56827;52.178;4.500;2023-11-21T00:42:46;34.03;30.22;42.17;;
66463;Laerm;56827;52.178;4.500;2023-11-21T00:42:57;34.39;31.08;41.71;;
66463;Laerm;56827;52.178;4.500;2023-11-21T00:43:07;34.03;30.35;44.06;;
66463;Laerm;56827;52.178;4.500;2023-11-21T00:43:17;32.06;29.40;37.53;;
66463;Laerm;56827;52.178;4.500;2023-11-21T00:43:28;32.89;29.56;37.47;;
66463;Laerm;56827;52.178;4.500;2023-11-21T00:43:38;34.72;31.79;39.51;;
66463;Laerm;56827;52.178;4.500;2023-11-21T00:43:48;33.01;30.38;38.19;;
66463;Laerm;56827;52.178;4.500;2023-11-21T00:43:58;33.10;29.91;37.38;;
66463;Laerm;56827;52.178;4.500;2023-11-21T00:44:09;32.71;29.48;43.39;;
66463;Laerm;56827;52.178;4.500;2023-11-21T00:44:20;31.46;29.23;39.18;;
66463;Laerm;56827;52.178;4.500;2023-11-21T00:44:30;32.06;29.50;38.89;;
66463;Laerm;56827;52.178;4.500;2023-11-21T00:44:41;31.47;28.78;38.15;;
66463;Laerm;56827;52.178;4.500;2023-11-21T00:44:51;31.92;28.68;43.97;;
66463;Laerm;56827;52.178;4.500;2023-11-21T00:45:01;31.93;29.18;41.73;;
66463;Laerm;56827;52.178;4.500;2023-11-21T00:45:11;35.37;29.30;52.80;;
66463;Laerm;56827;52.178;4.500;2023-11-21T00:45:22;32.24;29.32;41.62;;
66463;Laerm;56827;52.178;4.500;2023-11-21T00:45:32;32.37;29.52;38.19;;
66463;Laerm;56827;52.178;4.500;2023-11-21T00:45:42;32.14;29.35;39.13;;
66463;Laerm;56827;52.178;4.500;2023-11-21T00:45:52;32.37;29.50;38.73;;
66463;Laerm;56827;52.178;4.500;2023-11-21T00:46:05;31.79;29.19;39.29;;
66463;Laerm;56827;52.178;4.500;2023-11-21T00:46:19;31.64;29.50;37.90;;
66463;Laerm;56827;52.178;4.500;2023-11-21T00:46:29;32.01;29.74;37.68;;
66463;Laerm;56827;52.178;4.500;2023-11-21T00:46:39;31.94;29.70;36.32;;
66463;Laerm;56827;52.178;4.500;2023-11-21T00:46:49;32.18;29.93;41.11;;
66463;Laerm;56827;52.178;4.500;2023-11-21T00:47:00;31.82;29.42;38.20;;
66463;Laerm;56827;52.178;4.500;2023-11-21T00:47:11;31.76;29.78;37.29;;
66463;Laerm;56827;52.178;4.500;2023-11-21T00:47:21;34.75;30.74;39.97;;
66463;Laerm;56827;52.178;4.500;2023-11-21T00:47:32;37.33;34.87;39.92;;
66463;Laerm;56827;52.178;4.500;2023-11-21T00:47:42;36.30;33.94;38.77;;
66463;Laerm;56827;52.178;4.500;2023-11-21T00:47:53;35.72;32.76;39.53;;
66463;Laerm;56827;52.178;4.500;2023-11-21T00:48:03;33.50;30.84;39.18;;
66463;Laerm;56827;52.178;4.500;2023-11-21T00:48:14;33.97;30.92;46.10;;
66463;Laerm;56827;52.178;4.500;2023-11-21T00:48:25;34.74;31.57;49.81;;
66463;Laerm;56827;52.178;4.500;2023-11-21T00:48:35;35.50;31.19;39.33;;
66463;Laerm;56827;52.178;4.500;2023-11-21T00:48:45;34.45;30.57;39.94;;
66463;Laerm;56827;52.178;4.500;2023-11-21T00:48:55;31.76;29.49;37.62;;
66463;Laerm;56827;52.178;4.500;2023-11-21T00:49:05;31.54;29.01;39.46;;
66463;Laerm;56827;52.178;4.500;2023-11-21T00:49:16;31.20;28.61;37.78;;
66463;Laerm;56827;52.178;4.500;2023-11-21T00:49:26;31.32;29.19;41.57;;
66463;Laerm;56827;52.178;4.500;2023-11-21T00:49:38;31.95;28.93;47.10;;
66463;Laerm;56827;52.178;4.500;2023-11-21T00:49:49;31.45;29.08;39.53;;
66463;Laerm;56827;52.178;4.500;2023-11-21T00:49:59;31.73;29.10;38.66;;
66463;Laerm;56827;52.178;4.500;2023-11-21T00:50:10;31.62;29.34;39.00;;
66463;Laerm;56827;52.178;4.500;2023-11-21T00:50:21;31.89;29.37;39.91;;
66463;Laerm;56827;52.178;4.500;2023-11-21T00:50:31;31.58;29.02;38.37;;
66463;Laerm;56827;52.178;4.500;2023-11-21T00:50:41;31.63;29.28;36.68;;
66463;Laerm;56827;52.178;4.500;2023-11-21T00:50:52;32.45;29.36;44.54;;
66463;Laerm;56827;52.178;4.500;2023-11-21T00:51:02;31.44;28.95;39.26;;
66463;Laerm;56827;52.178;4.500;2023-11-21T00:51:12;31.49;29.26;36.92;;
66463;Laerm;56827;52.178;4.500;2023-11-21T00:51:22;31.53;29.04;38.21;;
66463;Laerm;56827;52.178;4.500;2023-11-21T00:51:33;31.63;28.91;37.52;;
66463;Laerm;56827;52.178;4.500;2023-11-21T00:51:43;32.00;29.11;40.25;;
66463;Laerm;56827;52.178;4.500;2023-11-21T00:51:53;32.70;29.19;50.31;;
66463;Laerm;56827;52.178;4.500;2023-11-21T00:52:04;31.41;28.68;36.76;;
66463;Laerm;56827;52.178;4.500;2023-11-21T00:52:14;31.68;28.90;39.19;;
66463;Laerm;56827;52.178;4.500;2023-11-21T00:52:24;31.97;29.23;44.65;;
66463;Laerm;56827;52.178;4.500;2023-11-21T00:52:35;31.28;29.06;38.98;;
66463;Laerm;56827;52.178;4.500;2023-11-21T00:52:46;31.45;28.94;39.58;;
66463;Laerm;56827;52.178;4.500;2023-11-21T00:52:56;31.55;29.31;38.63;;
66463;Laerm;56827;52.178;4.500;2023-11-21T00:53:06;33.91;29.94;46.97;;
66463;Laerm;56827;52.178;4.500;2023-11-21T00:53:17;36.93;31.46;42.31;;
66463;Laerm;56827;52.178;4.500;2023-11-21T00:53:27;35.04;29.84;39.55;;
66463;Laerm;56827;52.178;4.500;2023-11-21T00:53:37;31.94;29.82;37.67;;
66463;Laerm;56827;52.178;4.500;2023-11-21T00:53:48;31.64;29.18;37.34;;
66463;Laerm;56827;52.178;4.500;2023-11-21T00:53:58;32.23;29.22;45.26;;
66463;Laerm;56827;52.178;4.500;2023-11-21T00:54:09;31.41;29.34;37.00;;
66463;Laerm;56827;52.178;4.500;2023-11-21T00:54:19;31.70;29.23;39.14;;
66463;Laerm;56827;52.178;4.500;2023-11-21T00:54:29;33.01;29.18;48.33;;
66463;Laerm;56827;52.178;4.500;2023-11-21T00:54:39;31.57;29.23;41.01;;
66463;Laerm;56827;52.178;4.500;2023-11-21T00:54:49;32.31;29.42;42.14;;
66463;Laerm;56827;52.178;4.500;2023-11-21T00:55:00;31.62;29.21;38.05;;
66463;Laerm;56827;52.178;4.500;2023-11-21T00:55:10;32.31;29.20;38.57;;
66463;Laerm;56827;52.178;4.500;2023-11-21T00:55:22;36.53;31.90;40.74;;
66463;Laerm;56827;52.178;4.500;2023-11-21T00:55:32;38.07;30.65;41.40;;
66463;Laerm;56827;52.178;4.500;2023-11-21T00:55:42;32.75;29.98;45.33;;
66463;Laerm;56827;52.178;4.500;2023-11-21T00:55:52;32.43;29.88;39.50;;
66463;Laerm;56827;52.178;4.500;2023-11-21T00:56:07;32.07;29.48;38.73;;
66463;Laerm;56827;52.178;4.500;2023-11-21T00:56:18;32.50;30.12;44.27;;
66463;Laerm;56827;52.178;4.500;2023-11-21T00:56:28;31.99;29.72;38.19;;
66463;Laerm;56827;52.178;4.500;2023-11-21T00:56:39;32.48;30.46;36.84;;
66463;Laerm;56827;52.178;4.500;2023-11-21T00:56:50;34.26;31.61;40.32;;
66463;Laerm;56827;52.178;4.500;2023-11-21T00:57:00;34.09;31.77;38.31;;
66463;Laerm;56827;52.178;4.500;2023-11-21T00:57:10;32.51;29.44;37.94;;
66463;Laerm;56827;52.178;4.500;2023-11-21T00:57:21;32.13;29.63;43.24;;
66463;Laerm;56827;52.178;4.500;2023-11-21T00:57:32;32.33;29.79;39.51;;
66463;Laerm;56827;52.178;4.500;2023-11-21T00:57:42;32.54;30.08;41.79;;
66463;Laerm;56827;52.178;4.500;2023-11-21T00:57:52;32.39;29.65;44.52;;
66463;Laerm;56827;52.178;4.500;2023-11-21T00:58:02;31.87;29.73;37.94;;
66463;Laerm;56827;52.178;4.500;2023-11-21T00:58:14;32.58;29.54;41.33;;
66463;Laerm;56827;52.178;4.500;2023-11-21T00:58:27;32.45;30.04;37.47;;
66463;Laerm;56827;52.178;4.500;2023-11-21T00:58:37;32.54;30.35;41.90;;
66463;Laerm;56827;52.178;4.500;2023-11-21T00:58:47;32.66;30.10;42.74;;
66463;Laerm;56827;52.178;4.500;2023-11-21T00:58:59;32.06;29.84;37.26;;
66463;Laerm;56827;52.178;4.500;2023-11-21T00:59:10;34.43;31.60;40.63;;